Flight Track Log - Related Links

Times and Time Zones

All times are in EST time to prevent confusion due to time zone crossing. See the DAL2352 flight status page for this flight to view local times or setup timezone preferences in your user account.

Time Position Orientation Groundspeed Altitude Reporting Facility
EST Latitude Longitude Course Direction KTS MPH feet Rate Location/Type
Fri 02:31:51 PM 33.6494 -84.4781 243° Southwest 448 516 2,700  Level Atlanta Center
Fri 02:32:51 PM 33.6617 -84.5456 282° West 349 402 4,900 3,050 Climbing Atlanta Center
Fri 02:33:51 PM 33.6781 -84.6306 283° West 267 307 8,800 3,100 Climbing Atlanta Center
Fri 02:34:00 PM 33.4469 -84.8767 243° Southwest  Level Estimated
Fri 02:34:51 PM 33.6922 -84.7103 282° West 267 307 11,100  Level Atlanta Center
Fri 02:35:00 PM 33.3993 -84.9886 243° Southwest  Level Estimated
Fri 02:35:51 PM 33.6792 -84.8078 261° West 296 341 12,600  Level Atlanta Center
Fri 02:36:00 PM 33.3515 -85.1004 243° Southwest  Level Estimated
Fri 02:36:51 PM 33.6325 -84.9219 244° Southwest 323 372 15,300  Level Atlanta Center
Fri 02:37:00 PM 33.3036 -85.2121 243° Southwest  Level Estimated
Fri 02:37:51 PM 33.5900 -85.0314 245° Southwest 355 409 17,700  Level Atlanta Center
Fri 02:38:51 PM 33.5450 -85.1406 244° Southwest 363 418 20,000 2,200 Climbing Atlanta Center
Fri 02:39:51 PM 33.5064 -85.2572 248° West 368 423 22,100 1,900 Climbing Atlanta Center
Fri 02:40:51 PM 33.4883 -85.3864 261° West 373 429 23,800 2,250 Climbing Atlanta Center
Fri 02:41:51 PM 33.4683 -85.5081 259° West 379 436 26,600 2,450 Climbing Atlanta Center
Fri 02:42:51 PM 33.4522 -85.6272 261° West 370 426 28,700 1,950 Climbing Atlanta Center
Fri 02:43:51 PM 33.4339 -85.7414 259° West 370 426 30,500 1,500 Climbing Atlanta Center
Fri 02:44:51 PM 33.4136 -85.8431 257° West 347 399 31,700 750 Climbing Atlanta Center
Fri 02:45:51 PM 33.3953 -85.9572 259° West 342 394 32,000 150 Climbing Atlanta Center
Fri 02:46:51 PM 33.3789 -86.0736 260° West 342 394 32,000  Level Atlanta Center
Fri 02:47:51 PM 33.3581 -86.1828 257° West 348 400 32,000  Level Atlanta Center
Fri 02:48:51 PM 33.3414 -86.3017 261° West 356 410 32,000  Level Atlanta Center
Fri 02:49:51 PM 33.3228 -86.4106 258° West 356 410 32,000  Level Atlanta Center
Fri 02:50:51 PM 33.3064 -86.4994 258° West 350 403 32,000  Level Atlanta Center
Fri 02:51:51 PM 33.2869 -86.6283 260° West 355 409 32,000  Level Atlanta Center
Fri 02:52:51 PM 33.2678 -86.7419 259° West 355 409 32,000  Level Atlanta Center
Fri 02:53:51 PM 33.2508 -86.8506 259° West 350 403 32,000  Level Atlanta Center
Fri 02:54:51 PM 33.2231 -86.9639 254° West 354 407 32,000  Level Atlanta Center
Fri 02:55:51 PM 33.1869 -87.0819 250° West 354 407 32,000  Level Atlanta Center
Fri 02:56:51 PM 33.1325 -87.1669 233° Southwest 354 407 32,000  Level Atlanta Center
Fri 02:57:51 PM 33.0861 -87.2717 242° Southwest 354 407 32,000  Level Atlanta Center
Fri 02:59:52 PM 32.9958 -87.4694 241° Southwest 354 407 32,000  Level Memphis Center
Fri 03:00:54 PM 32.9392 -87.5942 242° Southwest 356 410 32,000  Level Memphis Center
Fri 03:01:56 PM 32.8914 -87.6975 241° Southwest 357 411 32,000  Level Memphis Center
Fri 03:02:58 PM 32.8450 -87.7994 242° Southwest 354 407 32,000  Level Memphis Center
Fri 03:04:00 PM 32.7978 -87.9042 242° Southwest 355 409 32,000  Level Memphis Center
Fri 03:05:02 PM 32.7506 -88.0058 241° Southwest 355 409 32,000  Level Memphis Center
Fri 03:06:05 PM 32.6939 -88.1289 241° Southwest 355 409 32,000  Level Memphis Center
Fri 03:07:07 PM 32.6464 -88.2314 241° Southwest 356 410 32,000  Level Memphis Center
Fri 03:08:09 PM 32.5992 -88.3342 241° Southwest 356 410 32,000  Level Memphis Center
Fri 03:09:11 PM 32.5511 -88.4378 241° Southwest 358 412 32,000  Level Memphis Center
Fri 03:10:13 PM 32.5025 -88.5406 241° Southwest 360 414 32,000  Level Memphis Center
Fri 03:11:15 PM 32.4544 -88.6439 241° Southwest 359 413 32,000  Level Memphis Center
Fri 03:12:17 PM 32.3967 -88.7675 241° Southwest 360 414 32,000  Level Memphis Center
Fri 03:13:19 PM 32.3383 -88.8633 234° Southwest 362 417 32,000  Level Memphis Center
Fri 03:14:21 PM 32.2711 -88.9561 229° Southwest 371 427 32,000 -145 Level Memphis Center
Fri 03:15:23 PM 32.2050 -89.0464 229° Southwest 368 423 31,700 -1,016 Descending Memphis Center
Fri 03:16:25 PM 32.1381 -89.1375 229° Southwest 367 422 29,900 -1,776 Descending Memphis Center
Fri 03:17:28 PM 32.0564 -89.2494 229° Southwest 372 428 28,000 -912 Descending Memphis Center
Fri 03:18:30 PM 31.9875 -89.3433 229° Southwest 377 434 28,000  Level Memphis Center
Fri 03:19:32 PM 31.9167 -89.4386 229° Southwest 382 440 28,000  Level Memphis Center
Fri 03:20:34 PM 31.8478 -89.5322 229° Southwest 382 440 28,000  Level Memphis Center
Fri 03:21:08 PM 31.8122 -89.5808 229° Southwest 382 440 28,000  Level Houston Center
Fri 03:22:11 PM 31.7392 -89.6789 229° Southwest 383 441 28,000  Level Houston Center
Fri 03:23:15 PM 31.6556 -89.7886 228° Southwest 378 435 28,000  Level Houston Center
Fri 03:24:17 PM 31.5858 -89.8817 229° Southwest 379 436 28,000 -98 Level Houston Center
Fri 03:25:17 PM 31.5169 -89.9739 229° Southwest 378 435 27,800 -919 Descending Houston Center
Fri 03:26:21 PM 31.4469 -90.0678 229° Southwest 382 440 26,100 -1,654 Descending Houston Center
Fri 03:27:24 PM 31.3767 -90.1611 229° Southwest 383 441 24,300 -1,790 Descending Houston Center
Fri 03:28:25 PM 31.2919 -90.2728 228° Southwest 384 442 22,400 -1,805 Descending Houston Center
Fri 03:29:27 PM 31.2206 -90.3644 228° Southwest 383 441 20,600 -2,049 Descending Houston Center
Fri 03:30:28 PM 31.1489 -90.4575 228° Southwest 387 445 18,200 -1,392 Descending Houston Center
Fri 03:31:32 PM 31.0756 -90.5500 227° Southwest 389 448 17,700 -768 Descending Houston Center
Fri 03:32:33 PM 31.0336 -90.6497 244° Southwest 343 395 16,600 -1,056 Descending Houston Center
Fri 03:33:37 PM 31.0006 -90.7611 251° West 306 352 15,500 -1,122 Descending Houston Center
Fri 03:34:36 PM 30.9747 -90.8506 251° West 295 339 14,300 -1,131 Descending Houston Center
Fri 03:35:39 PM 30.9194 -90.9219 228° Southwest 309 356 13,200 -1,200 Descending Houston Center
Fri 03:36:41 PM 30.8600 -90.9778 219° Southwest 280 322 11,800 -1,476 Descending Houston Center
Fri 03:37:45 PM 30.7975 -91.0303 216° Southwest 277 319 10,100 -1,429 Descending Houston Center
Fri 03:38:47 PM 30.7378 -91.0800 216° Southwest 272 313 8,800 -1,820 Descending Houston Center
Fri 03:39:47 PM 30.6672 -91.1408 217° Southwest 266 306 6,400 -1,935 Descending Houston Center
Fri 03:40:51 PM 30.6078 -91.1983 220° Southwest 271 312 4,800 -1,161 Descending Houston Center
Fri 03:41:51 PM 30.5450 -91.2550 218° Southwest 271 312 4,000 -800 Descending Houston Center
Fri 03:43:00 PM 30.5016 -91.2235 79° East  Level FlightAware Approximate
Fri 03:50:00 PM 30.5329 -91.1499 79° East  Level Estimated

Login

Don't have an account? Register now (free) for customized features, flight alerts, and more!